This is the latest recevied weather packets stored in our database for station/object DH0BRO-3. If no packets are shown the sender has not sent any weather packets the latest 10 day(s).
| Time | Temp. | Humidity | Pressure | Rain* | Wind** | Luminosity | Snow |
|---|---|---|---|---|---|---|---|
| 1777529239 | 5° C | 81% | 1033.6 hPa | 0 mm | - | - | - |
| 1777524685 | 1.67° C | 85% | 1033.4 hPa | 0 mm | - | - | - |
| 1777517460 | 1.67° C | 81% | 1032.7 hPa | 0 mm | - | - | - |
| 1777511139 | 2.22° C | 76% | 1032.6 hPa | 0 mm | - | - | - |
| 1777510236 | 2.78° C | 74% | 1032.5 hPa | 0 mm | - | - | - |
| 1777504818 | 3.89° C | 70% | 1032.5 hPa | 0 mm | - | - | - |
| 1777502110 | 5° C | 68% | 1032.2 hPa | 0 mm | - | - | - |
| 1777490514 | 11.11° C | 46% | 1031.1 hPa | 0 mm | - | - | - |
| 1777477872 | 15° C | 35% | 1030.1 hPa | 0 mm | - | - | - |
| 1777468843 | 15° C | 35% | 1030.7 hPa | 0 mm | - | - | - |
| 1777465230 | 15° C | 35% | 1030.8 hPa | 0 mm | - | - | - |
| 1777463424 | 14.44° C | 35% | 1030.8 hPa | 0 mm | - | - | - |
| 1777462521 | 14.44° C | 36% | 1031 hPa | 0 mm | - | - | - |
| 1777459812 | 14.44° C | 36% | 1030.9 hPa | 0 mm | - | - | - |
| 1777456045 | 13.33° C | 37% | 1031 hPa | 0 mm | - | - | - |
| 1777453336 | 12.22° C | 39% | 1031.2 hPa | 0 mm | - | - | - |
| 1777450627 | 10.56° C | 43% | 1031.2 hPa | 0 mm | - | - | - |
| 1777446413 | 7.78° C | 54% | 1030.8 hPa | 0 mm | - | - | - |
| 1777442802 | 5° C | 69% | 1030.2 hPa | 0 mm | - | - | - |
| 1777441898 | 4.44° C | 72% | 1030.2 hPa | 0 mm | - | - | - |
| 1777435577 | 1.67° C | 77% | 1029 hPa | 0 mm | - | - | - |
| 1777431965 | 2.22° C | 76% | 1028.9 hPa | 0 mm | - | - | - |
| 1777429256 | 2.78° C | 73% | 1028.7 hPa | 0 mm | - | - | - |
| 1777426547 | 3.89° C | 71% | 1028.4 hPa | 0 mm | - | - | - |
| 1777418419 | 7.22° C | 57% | 1027.8 hPa | 0 mm | - | - | - |
* Rain latest hour (hover to see other rain measurements)
** Current wind speed in m/s (hover to see current wind gust speed)